createdAt,value
2023-05-12T00:00:26.655Z,614.00
2023-05-12T00:00:56.709Z,613.00
2023-05-12T00:01:26.747Z,613.00
2023-05-12T00:01:56.781Z,612.00
2023-05-12T00:02:26.862Z,611.00
2023-05-12T00:02:57.015Z,609.00
2023-05-12T00:03:27.118Z,610.00
2023-05-12T00:03:57.326Z,612.00
2023-05-12T00:04:27.171Z,612.00
2023-05-12T00:04:57.366Z,610.00
2023-05-12T00:05:27.333Z,610.00
2023-05-12T00:05:57.381Z,609.00
2023-05-12T00:06:27.410Z,608.00
2023-05-12T00:06:57.442Z,607.00
2023-05-12T00:07:27.469Z,606.00
2023-05-12T00:07:57.502Z,607.00
2023-05-12T00:08:27.524Z,608.00
2023-05-12T00:08:57.561Z,603.00
2023-05-12T00:09:27.600Z,604.00
2023-05-12T00:09:57.638Z,603.00
2023-05-12T00:10:27.692Z,604.00
2023-05-12T00:10:57.724Z,604.00
2023-05-12T00:11:27.765Z,605.00
2023-05-12T00:11:57.780Z,604.00
2023-05-12T00:12:27.809Z,605.00
2023-05-12T00:12:57.840Z,604.00
2023-05-12T00:13:27.886Z,603.00
2023-05-12T00:13:57.992Z,604.00
2023-05-12T00:14:27.919Z,605.00
2023-05-12T00:14:57.964Z,605.00
2023-05-12T00:15:27.990Z,605.00
2023-05-12T00:15:58.065Z,605.00
2023-05-12T00:16:28.132Z,606.00
2023-05-12T00:16:58.259Z,607.00
2023-05-12T00:17:28.347Z,606.00
2023-05-12T00:17:58.457Z,605.00
2023-05-12T00:18:28.597Z,604.00
2023-05-12T00:18:58.663Z,604.00
2023-05-12T00:19:28.787Z,605.00
2023-05-12T00:19:58.794Z,606.00
2023-05-12T00:20:28.826Z,606.00
2023-05-12T00:20:58.858Z,607.00
2023-05-12T00:21:28.882Z,605.00
2023-05-12T00:21:58.915Z,605.00
2023-05-12T00:22:28.953Z,603.00
2023-05-12T00:22:58.980Z,604.00
2023-05-12T00:23:29.015Z,602.00
2023-05-12T00:23:59.013Z,601.00
2023-05-12T00:24:29.012Z,601.00
2023-05-12T00:24:59.126Z,601.00
2023-05-12T00:25:29.141Z,599.00
2023-05-12T00:26:29.190Z,601.00
2023-05-12T00:26:59.187Z,601.00
2023-05-12T00:27:29.219Z,600.00
2023-05-12T00:27:59.211Z,601.00
2023-05-12T00:28:29.345Z,600.00
2023-05-12T00:28:59.341Z,599.00
2023-05-12T00:29:59.410Z,599.00
2023-05-12T00:30:29.403Z,598.00
2023-05-12T00:30:59.517Z,600.00
2023-05-12T00:31:29.692Z,599.00
2023-05-12T00:31:59.708Z,599.00
2023-05-12T00:32:29.784Z,600.00
2023-05-12T00:32:59.833Z,602.00
2023-05-12T00:33:29.832Z,601.00
2023-05-12T00:33:59.876Z,600.00
2023-05-12T00:34:29.891Z,599.00
2023-05-12T00:34:59.952Z,598.00
2023-05-12T00:35:29.958Z,597.00
2023-05-12T00:35:59.993Z,598.00
2023-05-12T00:36:30.008Z,598.00
2023-05-12T00:37:00.049Z,600.00
2023-05-12T00:37:30.076Z,598.00
2023-05-12T00:38:00.119Z,598.00
2023-05-12T00:38:30.154Z,599.00
2023-05-12T00:39:00.195Z,599.00
2023-05-12T00:39:30.219Z,600.00
2023-05-12T00:40:00.260Z,600.00
2023-05-12T00:40:30.287Z,600.00
2023-05-12T00:41:00.313Z,600.00
2023-05-12T00:41:30.355Z,601.00
2023-05-12T00:42:00.429Z,601.00
2023-05-12T00:42:30.463Z,599.00
2023-05-12T00:43:00.502Z,600.00
2023-05-12T00:43:30.535Z,598.00
2023-05-12T00:44:00.565Z,599.00
2023-05-12T00:44:30.586Z,600.00
2023-05-12T00:45:00.683Z,601.00
2023-05-12T00:45:30.701Z,599.00
2023-05-12T00:46:00.782Z,599.00
2023-05-12T00:46:30.932Z,599.00
2023-05-12T00:47:00.840Z,599.00
2023-05-12T00:47:30.926Z,598.00
2023-05-12T00:48:00.982Z,598.00
2023-05-12T00:48:31.004Z,596.00
2023-05-12T00:49:01.036Z,596.00
2023-05-12T00:49:31.062Z,598.00
2023-05-12T00:50:01.105Z,596.00
2023-05-12T00:50:31.159Z,597.00
2023-05-12T00:51:01.160Z,598.00
2023-05-12T00:51:31.186Z,599.00
2023-05-12T00:52:01.231Z,600.00
2023-05-12T00:52:31.260Z,600.00
2023-05-12T00:53:01.293Z,602.00
2023-05-12T00:53:41.404Z,602.00
2023-05-12T00:54:01.370Z,604.00
2023-05-12T00:54:31.403Z,604.00
2023-05-12T00:55:01.441Z,603.00
2023-05-12T00:55:31.478Z,604.00
2023-05-12T00:56:01.489Z,603.00
2023-05-12T00:56:31.581Z,601.00
2023-05-12T00:57:01.604Z,600.00
2023-05-12T00:57:31.622Z,601.00
2023-05-12T00:58:01.658Z,602.00
2023-05-12T00:58:31.694Z,601.00
2023-05-12T00:59:01.723Z,602.00
2023-05-12T00:59:31.756Z,602.00
2023-05-12T01:00:01.790Z,603.00
2023-05-12T01:00:31.811Z,601.00
2023-05-12T01:01:01.930Z,601.00
2023-05-12T01:01:31.902Z,599.00
2023-05-12T01:02:02.052Z,598.00
2023-05-12T01:02:32.064Z,597.00
2023-05-12T01:03:02.136Z,597.00
2023-05-12T01:03:32.104Z,595.00
2023-05-12T01:04:02.035Z,595.00
2023-05-12T01:04:32.061Z,595.00
2023-05-12T01:05:02.090Z,595.00
2023-05-12T01:05:32.145Z,595.00
2023-05-12T01:06:02.206Z,595.00
2023-05-12T01:06:32.216Z,595.00
2023-05-12T01:07:02.252Z,595.00
2023-05-12T01:07:32.274Z,594.00
2023-05-12T01:08:02.322Z,594.00
2023-05-12T01:08:32.351Z,593.00
2023-05-12T01:09:02.379Z,593.00
2023-05-12T01:09:32.400Z,594.00
2023-05-12T01:10:02.422Z,596.00
2023-05-12T01:10:32.479Z,596.00
2023-05-12T01:11:02.528Z,596.00
2023-05-12T01:11:32.563Z,597.00
2023-05-12T01:12:02.589Z,598.00
2023-05-12T01:12:32.624Z,599.00
2023-05-12T01:13:02.660Z,601.00
2023-05-12T01:13:32.676Z,601.00
2023-05-12T01:14:02.739Z,599.00
2023-05-12T01:14:32.785Z,597.00
2023-05-12T01:15:02.821Z,598.00
2023-05-12T01:15:32.867Z,596.00
2023-05-12T01:16:02.932Z,597.00
2023-05-12T01:16:32.951Z,596.00
2023-05-12T01:17:03.027Z,595.00
2023-05-12T01:17:33.247Z,592.00
2023-05-12T01:18:03.197Z,593.00
2023-05-12T01:18:33.286Z,594.00
2023-05-12T01:19:03.268Z,597.00
2023-05-12T01:19:33.333Z,596.00
2023-05-12T01:20:03.387Z,596.00
2023-05-12T01:20:33.404Z,597.00
2023-05-12T01:21:03.430Z,595.00
2023-05-12T01:21:33.482Z,596.00
2023-05-12T01:22:03.507Z,596.00
2023-05-12T01:22:33.600Z,596.00
2023-05-12T01:23:03.572Z,597.00
2023-05-12T01:23:33.594Z,599.00
2023-05-12T01:24:03.713Z,597.00
2023-05-12T01:24:33.721Z,596.00
2023-05-12T01:25:03.740Z,594.00
2023-05-12T01:26:03.800Z,592.00
2023-05-12T01:26:33.915Z,593.00
2023-05-12T01:27:04.029Z,593.00
2023-05-12T01:27:34.161Z,594.00
2023-05-12T01:28:04.140Z,593.00
2023-05-12T01:29:04.208Z,590.00
2023-05-12T01:29:34.250Z,588.00
2023-05-12T01:30:04.229Z,585.00
2023-05-12T01:30:34.340Z,583.00
2023-05-12T01:31:04.369Z,582.00
2023-05-12T01:31:34.396Z,582.00
2023-05-12T01:32:04.362Z,582.00
2023-05-12T01:33:04.455Z,582.00
2023-05-12T01:33:34.511Z,581.00
2023-05-12T01:34:04.552Z,582.00
2023-05-12T01:34:34.597Z,581.00
2023-05-12T01:35:04.616Z,580.00
2023-05-12T01:35:34.655Z,580.00
2023-05-12T01:36:04.681Z,580.00
2023-05-12T01:36:34.708Z,582.00
2023-05-12T01:37:04.759Z,585.00
2023-05-12T01:37:34.765Z,585.00
2023-05-12T01:38:04.797Z,583.00
2023-05-12T01:38:34.842Z,584.00
2023-05-12T01:39:04.887Z,584.00
2023-05-12T01:39:34.914Z,582.00
2023-05-12T01:40:04.959Z,580.00
2023-05-12T01:40:34.978Z,578.00
2023-05-12T01:41:05.017Z,577.00
2023-05-12T01:41:35.043Z,576.00
2023-05-12T01:42:05.077Z,574.00
2023-05-12T01:42:35.130Z,574.00
2023-05-12T01:43:05.135Z,575.00
2023-05-12T01:43:35.175Z,576.00
2023-05-12T01:44:05.201Z,574.00
2023-05-12T01:44:35.241Z,576.00
2023-05-12T01:45:05.263Z,577.00
2023-05-12T01:45:35.283Z,578.00
2023-05-12T01:46:05.327Z,577.00
2023-05-12T01:46:35.522Z,579.00
2023-05-12T01:47:05.441Z,579.00
2023-05-12T01:47:35.489Z,578.00
2023-05-12T01:48:05.598Z,580.00
2023-05-12T01:48:35.631Z,580.00
2023-05-12T01:49:05.656Z,579.00
2023-05-12T01:49:35.685Z,580.00
2023-05-12T01:50:05.712Z,581.00
2023-05-12T01:50:35.735Z,581.00
2023-05-12T01:51:05.769Z,581.00
2023-05-12T01:51:35.804Z,581.00
2023-05-12T01:52:05.846Z,580.00
2023-05-12T01:52:36.004Z,578.00
2023-05-12T01:53:05.883Z,579.00
2023-05-12T01:54:05.914Z,578.00
2023-05-12T01:54:35.949Z,579.00
2023-05-12T01:55:05.973Z,579.00
2023-05-12T01:55:35.996Z,579.00
2023-05-12T01:56:06.041Z,580.00
2023-05-12T01:56:36.057Z,578.00
2023-05-12T01:57:06.094Z,578.00
2023-05-12T01:57:36.137Z,577.00
2023-05-12T01:58:06.168Z,577.00
2023-05-12T01:58:36.235Z,577.00
2023-05-12T01:59:06.330Z,577.00
2023-05-12T01:59:36.377Z,577.00
2023-05-12T02:00:06.389Z,577.00
2023-05-12T02:00:36.414Z,577.00
2023-05-12T02:01:06.448Z,578.00
2023-05-12T02:01:36.484Z,580.00
2023-05-12T02:02:06.693Z,579.00
2023-05-12T02:02:36.632Z,578.00
2023-05-12T02:03:06.643Z,577.00
2023-05-12T02:03:36.717Z,577.00
2023-05-12T02:04:06.774Z,576.00
2023-05-12T02:04:36.657Z,577.00
2023-05-12T02:05:06.689Z,578.00
2023-05-12T02:05:36.720Z,577.00
2023-05-12T02:06:06.754Z,575.00
2023-05-12T02:06:36.790Z,575.00
2023-05-12T02:07:06.825Z,577.00
2023-05-12T02:07:36.855Z,578.00
2023-05-12T02:08:06.911Z,578.00
2023-05-12T02:08:36.921Z,579.00
2023-05-12T02:09:06.945Z,580.00
2023-05-12T02:09:36.971Z,581.00
2023-05-12T02:10:07.008Z,581.00
2023-05-12T02:10:37.037Z,581.00
2023-05-12T02:11:07.112Z,582.00
2023-05-12T02:11:37.153Z,581.00
2023-05-12T02:12:07.183Z,579.00
2023-05-12T02:12:37.211Z,580.00
2023-05-12T02:13:07.264Z,579.00
2023-05-12T02:13:37.276Z,578.00
2023-05-12T02:14:07.312Z,577.00
2023-05-12T02:14:37.353Z,575.00
2023-05-12T02:15:07.379Z,575.00
2023-05-12T02:15:37.412Z,576.00
2023-05-12T02:16:07.510Z,576.00
2023-05-12T02:16:37.734Z,575.00
2023-05-12T02:17:07.537Z,574.00
2023-05-12T02:17:37.616Z,574.00
2023-05-12T02:18:07.748Z,574.00
2023-05-12T02:18:37.836Z,574.00
2023-05-12T02:19:07.890Z,574.00
2023-05-12T02:19:37.868Z,574.00
2023-05-12T02:20:08.004Z,573.00
2023-05-12T02:20:38.089Z,572.00
2023-05-12T02:21:08.104Z,574.00
2023-05-12T02:21:38.140Z,575.00
2023-05-12T02:22:08.187Z,575.00
2023-05-12T02:22:38.209Z,575.00
2023-05-12T02:23:08.236Z,575.00
2023-05-12T02:23:38.273Z,575.00
2023-05-12T02:24:38.340Z,576.00
2023-05-12T02:25:08.455Z,577.00
2023-05-12T02:25:38.465Z,577.00
2023-05-12T02:26:08.463Z,575.00
2023-05-12T02:26:38.575Z,576.00
2023-05-12T02:27:08.688Z,577.00
2023-05-12T02:27:38.828Z,576.00
2023-05-12T02:28:08.826Z,574.00
2023-05-12T02:28:38.948Z,574.00
2023-05-12T02:29:08.937Z,575.00
2023-05-12T02:30:09.065Z,575.00
2023-05-12T02:30:39.039Z,575.00
2023-05-12T02:31:09.036Z,574.00
2023-05-12T02:31:39.222Z,572.00
2023-05-12T02:32:09.241Z,572.00
2023-05-12T02:32:39.244Z,572.00
2023-05-12T02:33:39.328Z,572.00
2023-05-12T02:34:09.359Z,574.00
2023-05-12T02:34:39.406Z,576.00
2023-05-12T02:35:09.427Z,578.00
2023-05-12T02:35:39.463Z,577.00
2023-05-12T02:36:09.505Z,576.00
2023-05-12T02:36:39.525Z,576.00
2023-05-12T02:37:09.550Z,576.00
2023-05-12T02:37:39.575Z,575.00
2023-05-12T02:38:09.608Z,577.00
2023-05-12T02:38:39.634Z,576.00
2023-05-12T02:39:09.741Z,577.00
2023-05-12T02:39:39.762Z,578.00
2023-05-12T02:40:09.771Z,576.00
2023-05-12T02:40:39.799Z,576.00
2023-05-12T02:41:09.832Z,577.00
2023-05-12T02:41:39.879Z,578.00
2023-05-12T02:42:09.911Z,578.00
2023-05-12T02:42:39.926Z,577.00
2023-05-12T02:43:09.961Z,577.00
2023-05-12T02:43:39.983Z,574.00
2023-05-12T02:44:10.024Z,574.00
2023-05-12T02:44:40.061Z,573.00
2023-05-12T02:45:10.094Z,572.00
2023-05-12T02:45:40.140Z,571.00
2023-05-12T02:46:10.207Z,570.00
2023-05-12T02:46:40.241Z,568.00
2023-05-12T02:47:10.270Z,569.00
2023-05-12T02:47:40.396Z,568.00
2023-05-12T02:48:10.349Z,568.00
2023-05-12T02:48:40.412Z,570.00
2023-05-12T02:49:10.447Z,571.00
2023-05-12T02:49:40.479Z,572.00
2023-05-12T02:50:10.502Z,572.00
2023-05-12T02:50:40.534Z,572.00
2023-05-12T02:51:10.567Z,573.00
2023-05-12T02:51:40.607Z,573.00
2023-05-12T02:52:10.626Z,571.00
2023-05-12T02:52:40.665Z,570.00
2023-05-12T02:53:10.699Z,569.00
2023-05-12T02:53:40.734Z,568.00
2023-05-12T02:54:10.765Z,567.00
2023-05-12T02:54:40.815Z,568.00
2023-05-12T02:55:10.825Z,568.00
2023-05-12T02:55:40.856Z,566.00
2023-05-12T02:56:10.894Z,566.00
2023-05-12T02:56:40.922Z,564.00
2023-05-12T02:57:10.950Z,565.00
2023-05-12T02:57:40.978Z,566.00
2023-05-12T02:58:11.026Z,566.00
2023-05-12T02:58:41.059Z,565.00
2023-05-12T02:59:11.093Z,565.00
2023-05-12T02:59:41.112Z,565.00
2023-05-12T03:00:11.141Z,565.00
2023-05-12T03:00:41.179Z,565.00
2023-05-12T03:01:11.897Z,565.00
2023-05-12T03:01:41.246Z,567.00
2023-05-12T03:02:11.326Z,567.00
2023-05-12T03:02:41.464Z,568.00
2023-05-12T03:03:11.520Z,568.00
2023-05-12T03:03:41.631Z,568.00
2023-05-12T03:04:11.476Z,567.00
2023-05-12T03:04:41.515Z,569.00
2023-05-12T03:05:11.554Z,571.00
2023-05-12T03:05:41.585Z,570.00
2023-05-12T03:06:11.612Z,570.00
2023-05-12T03:06:41.664Z,567.00
2023-05-12T03:07:11.742Z,566.00
2023-05-12T03:07:41.765Z,565.00
2023-05-12T03:08:11.774Z,567.00
2023-05-12T03:08:41.837Z,567.00
2023-05-12T03:09:11.840Z,569.00
2023-05-12T03:09:41.867Z,568.00
2023-05-12T03:10:11.971Z,568.00
2023-05-12T03:10:41.950Z,569.00
2023-05-12T03:11:12.007Z,571.00
2023-05-12T03:11:42.027Z,570.00
2023-05-12T03:12:12.074Z,569.00
2023-05-12T03:12:42.099Z,569.00
2023-05-12T03:13:12.154Z,569.00
2023-05-12T03:13:42.177Z,568.00
2023-05-12T03:14:12.217Z,567.00
2023-05-12T03:14:42.238Z,566.00
2023-05-12T03:15:12.298Z,568.00
2023-05-12T03:15:42.313Z,566.00
2023-05-12T03:16:12.342Z,567.00
2023-05-12T03:16:42.452Z,564.00
2023-05-12T03:17:12.535Z,564.00
2023-05-12T03:17:42.576Z,565.00
2023-05-12T03:18:12.658Z,565.00
2023-05-12T03:18:42.675Z,564.00
2023-05-12T03:19:12.742Z,565.00
2023-05-12T03:19:42.777Z,564.00
2023-05-12T03:20:12.803Z,564.00
2023-05-12T03:20:42.834Z,563.00
2023-05-12T03:21:12.888Z,564.00
2023-05-12T03:21:42.924Z,564.00
2023-05-12T03:22:12.948Z,564.00
2023-05-12T03:22:42.986Z,564.00
2023-05-12T03:23:12.983Z,563.00
2023-05-12T03:24:13.058Z,566.00
2023-05-12T03:24:43.188Z,566.00
2023-05-12T03:25:13.286Z,565.00
2023-05-12T03:25:43.465Z,567.00
2023-05-12T03:26:13.460Z,568.00
2023-05-12T03:27:13.521Z,565.00
2023-05-12T03:27:43.560Z,563.00
2023-05-12T03:28:13.603Z,563.00
2023-05-12T03:28:43.599Z,562.00
2023-05-12T03:29:43.709Z,563.00
2023-05-12T03:30:13.695Z,562.00
2023-05-12T03:30:43.831Z,562.00
2023-05-12T03:31:13.830Z,561.00
2023-05-12T03:31:44.059Z,560.00
2023-05-12T03:32:13.942Z,561.00
2023-05-12T03:32:44.069Z,561.00
2023-05-12T03:33:14.117Z,560.00
2023-05-12T03:33:44.145Z,563.00
2023-05-12T03:34:14.160Z,564.00
2023-05-12T03:34:44.192Z,565.00
2023-05-12T03:35:14.248Z,567.00
2023-05-12T03:35:44.264Z,567.00
2023-05-12T03:36:14.296Z,567.00
2023-05-12T03:36:44.325Z,566.00
2023-05-12T03:37:14.364Z,565.00
2023-05-12T03:37:44.418Z,565.00
2023-05-12T03:38:14.428Z,566.00
2023-05-12T03:38:44.479Z,565.00
2023-05-12T03:39:14.506Z,565.00
2023-05-12T03:39:44.537Z,564.00
2023-05-12T03:40:14.578Z,564.00
2023-05-12T03:40:44.609Z,564.00
2023-05-12T03:41:14.666Z,564.00
2023-05-12T03:41:44.674Z,564.00
2023-05-12T03:42:14.698Z,565.00
2023-05-12T03:42:44.728Z,566.00
2023-05-12T03:43:14.757Z,567.00
2023-05-12T03:43:44.788Z,566.00
2023-05-12T03:44:14.816Z,564.00
2023-05-12T03:44:44.852Z,564.00
2023-05-12T03:45:14.899Z,563.00
2023-05-12T03:45:44.929Z,564.00
2023-05-12T03:46:15.006Z,566.00
2023-05-12T03:46:45.152Z,567.00
2023-05-12T03:47:15.276Z,567.00
2023-05-12T03:47:45.438Z,568.00
2023-05-12T03:48:15.414Z,568.00
2023-05-12T03:48:45.344Z,568.00
2023-05-12T03:49:15.393Z,567.00
2023-05-12T03:49:45.478Z,567.00
2023-05-12T03:50:15.490Z,568.00
2023-05-12T03:50:45.516Z,568.00
2023-05-12T03:51:15.536Z,566.00
2023-05-12T03:51:45.568Z,565.00
2023-05-12T03:52:15.608Z,566.00
2023-05-12T03:52:45.632Z,565.00
2023-05-12T03:53:15.693Z,563.00
2023-05-12T03:53:45.728Z,563.00
2023-05-12T03:54:15.775Z,561.00
2023-05-12T03:54:45.800Z,562.00
2023-05-12T03:55:15.836Z,563.00
2023-05-12T03:55:45.860Z,564.00
2023-05-12T03:56:15.886Z,566.00
2023-05-12T03:56:45.960Z,566.00
2023-05-12T03:57:15.991Z,567.00
2023-05-12T03:57:46.023Z,567.00
2023-05-12T03:58:16.052Z,568.00
2023-05-12T03:58:46.249Z,566.00
2023-05-12T03:59:16.177Z,565.00
2023-05-12T03:59:46.204Z,565.00
2023-05-12T04:00:16.229Z,564.00
2023-05-12T04:00:46.266Z,563.00
2023-05-12T04:01:16.297Z,562.00
2023-05-12T04:01:46.356Z,562.00
2023-05-12T04:02:16.431Z,563.00
2023-05-12T04:02:46.654Z,563.00
2023-05-12T04:03:16.544Z,563.00
2023-05-12T04:03:46.675Z,562.00
2023-05-12T04:04:16.624Z,563.00
2023-05-12T04:04:46.673Z,561.00
2023-05-12T04:05:16.708Z,563.00
2023-05-12T04:05:46.747Z,563.00
2023-05-12T04:06:16.767Z,562.00
2023-05-12T04:06:46.797Z,563.00
2023-05-12T04:07:16.827Z,563.00
2023-05-12T04:07:46.933Z,562.00
2023-05-12T04:08:16.974Z,562.00
2023-05-12T04:08:47.003Z,562.00
2023-05-12T04:09:17.021Z,560.00
2023-05-12T04:09:47.054Z,560.00
2023-05-12T04:10:17.215Z,561.00
2023-05-12T04:10:47.126Z,562.00
2023-05-12T04:11:17.157Z,561.00
2023-05-12T04:11:47.191Z,561.00
2023-05-12T04:12:17.240Z,561.00
2023-05-12T04:12:47.264Z,563.00
2023-05-12T04:13:17.323Z,564.00
2023-05-12T04:13:47.347Z,565.00
2023-05-12T04:14:17.382Z,565.00
2023-05-12T04:14:47.419Z,564.00
2023-05-12T04:15:17.458Z,564.00
2023-05-12T04:15:47.481Z,565.00
2023-05-12T04:16:17.563Z,563.00
2023-05-12T04:16:47.701Z,565.00
2023-05-12T04:17:17.755Z,565.00
2023-05-12T04:17:47.829Z,566.00
2023-05-12T04:18:17.891Z,567.00
2023-05-12T04:18:47.998Z,566.00
2023-05-12T04:19:18.033Z,566.00
2023-05-12T04:19:48.056Z,567.00
2023-05-12T04:20:18.212Z,567.00
2023-05-12T04:20:48.197Z,567.00
2023-05-12T04:21:18.226Z,569.00
2023-05-12T04:21:48.268Z,570.00
2023-05-12T04:22:18.301Z,570.00
2023-05-12T04:22:48.340Z,573.00
2023-05-12T04:23:18.358Z,574.00
2023-05-12T04:23:48.471Z,574.00
2023-05-12T04:24:18.606Z,574.00
2023-05-12T04:24:48.708Z,572.00
2023-05-12T04:25:18.827Z,571.00
2023-05-12T04:25:48.818Z,570.00
2023-05-12T04:26:48.944Z,570.00
2023-05-12T04:27:18.952Z,568.00
2023-05-12T04:27:48.979Z,568.00
2023-05-12T04:28:19.056Z,569.00
2023-05-12T04:28:49.064Z,568.00
2023-05-12T04:29:19.174Z,569.00
2023-05-12T04:29:49.288Z,568.00
2023-05-12T04:30:19.608Z,569.00
2023-05-12T04:30:49.289Z,569.00
2023-05-12T04:31:19.501Z,570.00
2023-05-12T04:31:49.545Z,571.00
2023-05-12T04:32:19.587Z,570.00
2023-05-12T04:32:49.626Z,570.00
2023-05-12T04:33:19.611Z,573.00
2023-05-12T04:33:49.679Z,575.00
2023-05-12T04:34:19.714Z,574.00
2023-05-12T04:34:49.741Z,574.00
2023-05-12T04:35:19.776Z,574.00
2023-05-12T04:35:49.854Z,575.00
2023-05-12T04:36:19.890Z,575.00
2023-05-12T04:36:49.923Z,574.00
2023-05-12T04:37:19.957Z,574.00
2023-05-12T04:37:49.984Z,573.00
2023-05-12T04:38:20.015Z,576.00
2023-05-12T04:38:50.051Z,577.00
2023-05-12T04:39:20.078Z,578.00
2023-05-12T04:39:50.118Z,577.00
2023-05-12T04:40:20.409Z,576.00
2023-05-12T04:40:50.270Z,578.00
2023-05-12T04:41:20.303Z,579.00
2023-05-12T04:41:50.349Z,579.00
2023-05-12T04:42:20.358Z,578.00
2023-05-12T04:42:50.395Z,577.00
2023-05-12T04:44:20.591Z,576.00
2023-05-12T04:44:50.615Z,577.00
2023-05-12T04:45:20.795Z,576.00
2023-05-12T04:45:50.801Z,576.00
2023-05-12T04:46:20.897Z,575.00
2023-05-12T04:46:50.857Z,576.00
2023-05-12T04:47:20.938Z,578.00
2023-05-12T04:47:51.008Z,576.00
2023-05-12T04:48:21.030Z,576.00
2023-05-12T04:48:51.061Z,577.00
2023-05-12T04:49:21.123Z,576.00
2023-05-12T04:49:51.145Z,576.00
2023-05-12T04:50:21.182Z,577.00
2023-05-12T04:50:51.280Z,576.00
2023-05-12T04:51:21.311Z,577.00
2023-05-12T04:51:51.340Z,579.00
2023-05-12T04:52:21.373Z,578.00
2023-05-12T04:52:51.405Z,578.00
2023-05-12T04:53:21.438Z,579.00
2023-05-12T04:53:51.460Z,579.00
2023-05-12T04:54:21.506Z,579.00
2023-05-12T04:54:51.551Z,581.00
2023-05-12T04:55:21.846Z,581.00
2023-05-12T04:55:51.638Z,580.00
2023-05-12T04:56:21.682Z,577.00
2023-05-12T04:56:51.709Z,577.00
2023-05-12T04:57:21.776Z,578.00
2023-05-12T04:57:51.799Z,580.00
2023-05-12T04:58:21.827Z,582.00
2023-05-12T04:58:51.914Z,581.00
2023-05-12T04:59:21.928Z,581.00
2023-05-12T04:59:51.962Z,580.00
2023-05-12T05:00:22.002Z,579.00
2023-05-12T05:00:52.029Z,578.00
2023-05-12T05:01:22.116Z,576.00
2023-05-12T05:01:52.135Z,576.00
2023-05-12T05:02:22.152Z,576.00
2023-05-12T05:02:52.240Z,574.00
2023-05-12T05:03:22.303Z,574.00
2023-05-12T05:03:52.261Z,575.00
2023-05-12T05:04:22.325Z,576.00
2023-05-12T05:04:52.349Z,576.00
2023-05-12T05:05:22.617Z,578.00
2023-05-12T05:05:52.491Z,578.00
2023-05-12T05:06:22.517Z,578.00
2023-05-12T05:06:52.560Z,579.00
2023-05-12T05:07:22.595Z,578.00
2023-05-12T05:07:52.616Z,579.00
2023-05-12T05:08:22.669Z,579.00
2023-05-12T05:08:52.716Z,580.00
2023-05-12T05:09:22.750Z,580.00
2023-05-12T05:09:52.800Z,579.00
2023-05-12T05:10:22.817Z,580.00
2023-05-12T05:10:52.836Z,579.00
2023-05-12T05:11:22.874Z,580.00
2023-05-12T05:11:52.906Z,580.00
2023-05-12T05:12:22.942Z,579.00
2023-05-12T05:12:52.963Z,579.00
2023-05-12T05:13:23.065Z,579.00
2023-05-12T05:13:53.077Z,579.00
2023-05-12T05:14:23.137Z,579.00
2023-05-12T05:14:53.140Z,578.00
2023-05-12T05:15:23.178Z,580.00
2023-05-12T05:15:53.327Z,580.00
2023-05-12T05:16:23.214Z,580.00
2023-05-12T05:16:53.237Z,580.00
2023-05-12T05:17:23.309Z,581.00
2023-05-12T05:17:53.489Z,580.00
2023-05-12T05:18:24.569Z,578.00
2023-05-12T05:18:53.537Z,579.00
2023-05-12T05:19:36.435Z,580.00
2023-05-12T05:19:58.098Z,581.00
2023-05-12T05:20:27.840Z,582.00
2023-05-12T05:20:58.498Z,583.00
2023-05-12T05:21:23.732Z,584.00
2023-05-12T05:21:53.766Z,585.00
2023-05-12T05:22:23.794Z,586.00
2023-05-12T05:22:53.824Z,587.00
2023-05-12T05:23:23.860Z,588.00
2023-05-12T05:23:53.960Z,587.00
2023-05-12T05:24:24.080Z,585.00
2023-05-12T05:24:54.080Z,584.00
2023-05-12T05:25:24.190Z,584.00
2023-05-12T05:25:54.312Z,583.00
2023-05-12T05:26:24.435Z,582.00
2023-05-12T05:26:54.568Z,584.00
2023-05-12T05:27:24.561Z,584.00
2023-05-12T05:28:24.657Z,586.00
2023-05-12T05:28:54.632Z,586.00
2023-05-12T05:29:54.741Z,588.00
2023-05-12T05:30:24.836Z,589.00
2023-05-12T05:30:54.842Z,588.00
2023-05-12T05:31:24.887Z,590.00
2023-05-12T05:31:55.101Z,590.00
2023-05-12T05:32:24.949Z,590.00
2023-05-12T05:32:54.960Z,590.00
2023-05-12T05:33:24.970Z,590.00
2023-05-12T05:33:55.041Z,591.00
2023-05-12T05:34:25.089Z,589.00
2023-05-12T05:34:55.124Z,589.00
2023-05-12T05:35:25.141Z,588.00
2023-05-12T05:35:55.180Z,589.00
2023-05-12T05:36:25.222Z,591.00
2023-05-12T05:36:55.259Z,592.00
2023-05-12T05:37:25.285Z,593.00
2023-05-12T05:37:55.320Z,595.00
2023-05-12T05:38:25.380Z,597.00
2023-05-12T05:38:55.424Z,597.00
2023-05-12T05:39:25.452Z,598.00
2023-05-12T05:39:55.481Z,600.00
2023-05-12T05:40:25.525Z,602.00
2023-05-12T05:40:55.565Z,602.00
2023-05-12T05:41:25.600Z,602.00
2023-05-12T05:41:55.639Z,603.00
2023-05-12T05:42:25.668Z,601.00
2023-05-12T05:42:55.700Z,601.00
2023-05-12T05:43:25.748Z,602.00
2023-05-12T05:43:55.764Z,604.00
2023-05-12T05:44:25.804Z,605.00
2023-05-12T05:44:55.836Z,604.00
2023-05-12T05:45:27.629Z,605.00
2023-05-12T05:45:55.921Z,604.00
2023-05-12T05:46:56.127Z,605.00
2023-05-12T05:47:26.081Z,606.00
2023-05-12T05:47:56.207Z,605.00
2023-05-12T05:48:26.250Z,603.00
2023-05-12T05:48:56.272Z,600.00
2023-05-12T05:49:26.299Z,600.00
2023-05-12T05:49:56.337Z,599.00
2023-05-12T05:50:26.379Z,599.00
2023-05-12T05:50:56.426Z,599.00
2023-05-12T05:51:26.456Z,601.00
2023-05-12T05:51:56.486Z,603.00
2023-05-12T05:52:26.510Z,604.00
2023-05-12T05:52:56.542Z,607.00
2023-05-12T05:53:26.598Z,607.00
2023-05-12T05:53:56.634Z,607.00
2023-05-12T05:54:26.662Z,607.00
2023-05-12T05:54:56.697Z,607.00
2023-05-12T05:55:26.728Z,606.00
2023-05-12T05:55:56.766Z,607.00
2023-05-12T05:56:26.789Z,607.00
2023-05-12T05:56:56.822Z,606.00
2023-05-12T05:57:26.852Z,607.00
2023-05-12T05:57:56.882Z,608.00
2023-05-12T05:58:26.920Z,607.00
2023-05-12T05:58:56.979Z,607.00
2023-05-12T05:59:27.016Z,608.00
2023-05-12T05:59:57.035Z,608.00
2023-05-12T06:00:27.059Z,607.00
2023-05-12T06:00:57.131Z,609.00
2023-05-12T06:01:27.135Z,608.00
2023-05-12T06:01:57.204Z,608.00
2023-05-12T06:02:27.305Z,609.00
2023-05-12T06:02:57.384Z,609.00
2023-05-12T06:03:27.510Z,612.00
2023-05-12T06:03:57.521Z,615.00
2023-05-12T06:04:27.583Z,616.00
2023-05-12T06:04:57.530Z,617.00
2023-05-12T06:05:27.541Z,621.00
2023-05-12T06:05:57.576Z,623.00
2023-05-12T06:06:27.624Z,626.00
2023-05-12T06:06:57.646Z,628.00
2023-05-12T06:07:27.701Z,630.00
2023-05-12T06:07:57.714Z,634.00
2023-05-12T06:08:27.744Z,639.00
2023-05-12T06:08:57.788Z,642.00
2023-05-12T06:09:27.827Z,647.00
2023-05-12T06:09:57.852Z,654.00
2023-05-12T06:10:27.887Z,656.00
2023-05-12T06:10:57.923Z,657.00
2023-05-12T06:11:27.972Z,660.00
2023-05-12T06:11:58.011Z,661.00
2023-05-12T06:12:28.089Z,665.00
2023-05-12T06:12:58.146Z,667.00
2023-05-12T06:13:28.189Z,668.00
2023-05-12T06:13:58.230Z,671.00
2023-05-12T06:14:28.267Z,674.00
2023-05-12T06:14:58.298Z,677.00
2023-05-12T06:15:28.335Z,679.00
2023-05-12T06:15:58.360Z,682.00
2023-05-12T06:16:28.550Z,687.00
2023-05-12T06:16:58.569Z,688.00
2023-05-12T06:17:30.282Z,690.00
2023-05-12T06:17:58.738Z,694.00
2023-05-12T06:18:28.818Z,696.00
2023-05-12T06:18:58.910Z,701.00
2023-05-12T06:19:28.864Z,706.00
2023-05-12T06:19:58.888Z,710.00
2023-05-12T06:20:29.023Z,711.00
2023-05-12T06:20:58.960Z,714.00
2023-05-12T06:21:29.003Z,716.00
2023-05-12T06:21:59.052Z,718.00
2023-05-12T06:22:29.127Z,723.00
2023-05-12T06:22:59.159Z,728.00
2023-05-12T06:23:29.182Z,736.00
2023-05-12T06:23:59.168Z,743.00